Time;durP1;ratioP1;P1;durP2;ratioP2;P2;SDS_P1;SDS_P2;PMS_P1;PMS_P2;Temp;Humidity;BMP_temperature;BMP_pressure;BME280_temperature;BME280_humidity;BME280_pressure;Samples;Min_cycle;Max_cycle;Signal;HPM_P1;HPM_P2
2022/06/30 00:00:03;;;;;;;;;;;;;;;17.84;74.80;100724.38;5040496;28;19921;-77
2022/06/30 00:02:29;;;;;;;;;;;;;;;17.81;75.03;100722.75;5044009;28;19931;-77
2022/06/30 00:04:54;;;;;;;;;;;;;;;17.81;75.86;100730.63;5045896;28;19921;-77
2022/06/30 00:07:19;;;;;;;;;;;;;;;17.81;76.15;100730.63;5045177;28;19931;-77
2022/06/30 00:09:45;;;;;;;;;;;;;;;17.80;76.26;100730.72;5041288;28;20422;-79
2022/06/30 00:12:10;;;;;;;;;;;;;;;17.77;76.26;100726.47;5031559;28;19929;-76
2022/06/30 00:14:35;;;;;;;;;;;;;;;17.76;76.07;100735.28;5043533;28;19986;-77
2022/06/30 00:17:01;;;;;;;;;;;;;;;17.78;76.03;100724.69;5047600;28;20450;-77
2022/06/30 00:19:26;;;;;;;;;;;;;;;17.74;75.94;100721.34;5032980;28;19960;-78
2022/06/30 00:21:51;;;;;;;;;;;;;;;17.75;76.06;100728.31;5049481;28;19923;-78
2022/06/30 00:24:17;;;;;;;;;;;;;;;17.73;76.07;100722.31;5048154;28;20019;-78
2022/06/30 00:26:42;;;;;;;;;;;;;;;17.75;76.14;100720.44;5049075;28;20425;-78
2022/06/30 00:29:07;;;;;;;;;;;;;;;17.72;76.24;100719.75;5029067;28;20348;-78
2022/06/30 00:31:33;;;;;;;;;;;;;;;17.70;76.63;100721.59;5047819;28;19929;-78
2022/06/30 00:33:58;;;;;;;;;;;;;;;17.70;75.78;100719.84;5043563;28;20016;-77
2022/06/30 00:36:23;;;;;;;;;;;;;;;17.66;75.81;100718.28;5049262;28;19916;-78
2022/06/30 00:38:49;;;;;;;;;;;;;;;17.66;75.79;100706.91;5025129;28;19946;-78
2022/06/30 00:41:14;;;;;;;;;;;;;;;17.62;75.76;100706.22;5043485;28;20035;-77
2022/06/30 00:43:43;;;;;;;;;;;;;;;17.63;75.97;100700.03;5044657;28;20011;-76
2022/06/30 00:46:08;;;;;;;;;;;;;;;17.63;75.22;100694.78;5048683;28;19913;-77
2022/06/30 00:48:34;;;;;;;;;;;;;;;17.62;76.01;100700.16;5049565;28;19915;-77
2022/06/30 00:50:59;;;;;;;;;;;;;;;17.59;75.55;100693.25;5046231;28;19931;-76
2022/06/30 00:53:25;;;;;;;;;;;;;;;17.62;75.41;100697.50;5031644;28;20012;-76
2022/06/30 00:55:51;;;;;;;;;;;;;;;17.62;75.45;100694.88;5040886;28;19921;-76
2022/06/30 00:58:18;;;;;;;;;;;;;;;17.55;75.82;100686.44;5045644;28;19982;-76
2022/06/30 01:00:45;;;;;;;;;;;;;;;17.55;75.32;100689.06;5042178;28;20388;-76
2022/06/30 01:03:11;;;;;;;;;;;;;;;17.59;74.76;100682.72;5043587;28;19928;-76
2022/06/30 01:05:37;;;;;;;;;;;;;;;17.58;75.37;100678.41;5041967;28;19978;-76
2022/06/30 01:08:05;;;;;;;;;;;;;;;17.57;75.04;100682.78;5045550;28;19932;-79
2022/06/30 01:13:15;;;;;;;;;;;;;;;17.51;75.07;100683.09;5038412;28;20024;-78
2022/06/30 01:15:40;;;;;;;;;;;;;;;17.55;75.09;100686.44;5042268;28;20008;-78
2022/06/30 01:18:05;;;;;;;;;;;;;;;17.53;75.21;100696.19;5042910;28;19925;-76
2022/06/30 01:20:32;;;;;;;;;;;;;;;17.49;75.36;100700.72;5042665;28;19921;-77
2022/06/30 01:22:58;;;;;;;;;;;;;;;17.50;75.66;100698.97;5045663;28;19934;-77
2022/06/30 01:25:26;;;;;;;;;;;;;;;17.46;75.36;100698.25;5039771;28;19925;-79
2022/06/30 01:27:53;;;;;;;;;;;;;;;17.45;75.44;100687.81;5029103;28;20043;-79
2022/06/30 01:30:18;;;;;;;;;;;;;;;17.47;75.72;100688.59;5027758;28;19929;-77
2022/06/30 01:32:44;;;;;;;;;;;;;;;17.41;75.69;100692.38;5043647;28;19951;-77
2022/06/30 01:35:09;;;;;;;;;;;;;;;17.44;75.26;100696.63;5047025;28;19925;-79
2022/06/30 01:37:45;;;;;;;;;;;;;;;17.48;74.97;100691.16;5039844;28;19932;-78
2022/06/30 01:40:10;;;;;;;;;;;;;;;17.46;75.28;100690.38;5024730;28;19917;-78
2022/06/30 01:42:35;;;;;;;;;;;;;;;17.39;75.15;100691.59;5046186;28;19994;-78
2022/06/30 01:45:01;;;;;;;;;;;;;;;17.35;75.24;100694.47;5041500;28;19925;-79
2022/06/30 01:47:26;;;;;;;;;;;;;;;17.40;75.03;100693.31;5046381;28;20028;-78
2022/06/30 01:49:52;;;;;;;;;;;;;;;17.38;75.06;100681.19;5025519;28;19978;-77
2022/06/30 01:52:18;;;;;;;;;;;;;;;17.42;74.73;100685.34;5045586;28;19932;-77
2022/06/30 01:54:43;;;;;;;;;;;;;;;17.40;75.19;100690.69;5026985;28;19944;-77
2022/06/30 01:57:08;;;;;;;;;;;;;;;17.32;75.54;100684.94;5040101;28;20549;-78
2022/06/30 01:59:34;;;;;;;;;;;;;;;17.33;75.28;100689.28;5046682;28;19920;-77
2022/06/30 02:01:59;;;;;;;;;;;;;;;17.28;75.61;100691.31;5046086;28;19924;-77
2022/06/30 02:07:08;;;;;;;;;;;;;;;17.27;75.50;100676.47;5044824;28;20346;-80
2022/06/30 02:09:34;;;;;;;;;;;;;;;17.31;75.50;100672.75;5048604;28;19921;-79
2022/06/30 02:14:43;;;;;;;;;;;;;;;17.25;75.50;100677.47;5039097;28;19931;-79
2022/06/30 02:17:08;;;;;;;;;;;;;;;17.28;75.74;100679.94;5041905;28;19924;-75
2022/06/30 02:19:34;;;;;;;;;;;;;;;17.26;75.88;100685.28;5028131;28;19941;-79
2022/06/30 02:21:59;;;;;;;;;;;;;;;17.25;75.67;100693.22;5036668;28;19948;-78
2022/06/30 02:24:24;;;;;;;;;;;;;;;17.28;75.63;100693.94;5042992;28;20457;-78
2022/06/30 02:26:50;;;;;;;;;;;;;;;17.23;75.78;100700.34;5046953;28;19924;-78
2022/06/30 02:29:15;;;;;;;;;;;;;;;17.20;75.20;100703.09;5025238;28;20074;-78
2022/06/30 02:31:40;;;;;;;;;;;;;;;17.20;75.57;100708.34;5043748;28;19936;-78
2022/06/30 02:34:06;;;;;;;;;;;;;;;17.24;75.73;100713.38;5046200;28;19952;-77
2022/06/30 02:36:31;;;;;;;;;;;;;;;17.21;75.72;100707.41;5051595;28;19925;-77
2022/06/30 02:38:56;;;;;;;;;;;;;;;17.23;75.62;100710.84;5048362;28;19925;-77
2022/06/30 02:41:22;;;;;;;;;;;;;;;17.24;75.43;100699.38;5043427;28;19936;-77
2022/06/30 02:43:48;;;;;;;;;;;;;;;17.21;75.49;100704.78;5045040;28;19929;-76
2022/06/30 02:46:14;;;;;;;;;;;;;;;17.16;75.63;100698.91;5027289;28;19947;-76
2022/06/30 02:48:39;;;;;;;;;;;;;;;17.19;75.62;100701.41;5028767;28;19917;-80
2022/06/30 02:51:04;;;;;;;;;;;;;;;17.19;75.86;100701.41;5026317;28;20476;-76
2022/06/30 02:53:30;;;;;;;;;;;;;;;17.21;75.60;100702.16;5046074;28;19924;-76
2022/06/30 02:55:56;;;;;;;;;;;;;;;17.14;75.18;100714.75;5027518;28;19921;-79
2022/06/30 02:58:21;;;;;;;;;;;;;;;17.16;75.20;100710.28;5038600;28;20043;-79
2022/06/30 03:00:47;;;;;;;;;;;;;;;17.16;75.47;100709.41;5045386;28;19924;-76
2022/06/30 03:03:12;;;;;;;;;;;;;;;17.14;75.30;100716.53;5045978;28;21149;-76
2022/06/30 03:05:37;;;;;;;;;;;;;;;17.11;75.54;100714.06;5045332;28;20379;-78
2022/06/30 03:08:03;;;;;;;;;;;;;;;17.12;75.43;100706.09;5029796;28;19925;-79
2022/06/30 03:10:28;;;;;;;;;;;;;;;17.16;75.53;100702.41;5042877;28;20409;-79
2022/06/30 03:12:54;;;;;;;;;;;;;;;17.12;75.08;100698.22;5045412;28;20339;-77
2022/06/30 03:15:19;;;;;;;;;;;;;;;17.13;75.11;100699.94;5041563;28;20008;-80
2022/06/30 03:17:44;;;;;;;;;;;;;;;17.11;75.38;100708.81;5041718;28;19925;-78
2022/06/30 03:20:10;;;;;;;;;;;;;;;17.18;75.22;100707.56;5044315;28;20268;-78
2022/06/30 03:22:35;;;;;;;;;;;;;;;17.14;75.01;100700.78;5045307;28;19993;-76
2022/06/30 03:25:00;;;;;;;;;;;;;;;17.12;75.48;100706.09;5026904;28;19928;-76
2022/06/30 03:27:26;;;;;;;;;;;;;;;17.11;75.64;100695.69;5044356;28;19931;-76
2022/06/30 03:29:51;;;;;;;;;;;;;;;17.16;75.30;100704.16;5043522;28;19963;-77
2022/06/30 03:32:16;;;;;;;;;;;;;;;17.18;75.38;100699.69;5046623;28;19929;-77
2022/06/30 03:34:42;;;;;;;;;;;;;;;17.14;75.16;100693.75;5047021;28;20392;-77
2022/06/30 03:37:07;;;;;;;;;;;;;;;17.14;75.27;100703.41;5044319;28;19929;-77
2022/06/30 03:39:33;;;;;;;;;;;;;;;17.15;75.16;100703.31;5045105;28;20015;-76
2022/06/30 03:41:58;;;;;;;;;;;;;;;17.19;75.27;100702.25;5041861;28;20371;-76
2022/06/30 03:44:23;;;;;;;;;;;;;;;17.17;74.96;100696.25;5035822;28;19929;-76
2022/06/30 03:46:48;;;;;;;;;;;;;;;17.13;75.36;100699.06;5024610;28;20009;-76
2022/06/30 03:49:15;;;;;;;;;;;;;;;17.11;75.42;100698.31;5046767;28;19935;-76
2022/06/30 03:51:40;;;;;;;;;;;;;;;17.11;75.60;100688.66;5044314;28;19933;-76
2022/06/30 03:54:05;;;;;;;;;;;;;;;17.15;75.35;100691.97;5047403;28;19921;-76
2022/06/30 03:56:31;;;;;;;;;;;;;;;17.14;75.70;100688.50;5041522;28;19952;-76
2022/06/30 03:58:56;;;;;;;;;;;;;;;17.19;75.76;100683.88;5043781;28;19928;-76
2022/06/30 04:01:21;;;;;;;;;;;;;;;17.17;75.54;100683.13;5044987;28;20373;-76
2022/06/30 04:03:47;;;;;;;;;;;;;;;17.15;75.93;100686.72;5045054;28;19974;-77
2022/06/30 04:06:12;;;;;;;;;;;;;;;17.20;75.80;100674.22;5050281;28;20430;-77
2022/06/30 04:08:38;;;;;;;;;;;;;;;17.19;75.86;100672.53;5049815;28;19920;-77
2022/06/30 04:11:03;;;;;;;;;;;;;;;17.23;75.59;100676.72;5033177;28;20002;-77
2022/06/30 04:13:28;;;;;;;;;;;;;;;17.17;75.88;100679.63;5031767;28;19921;-77
2022/06/30 04:15:55;;;;;;;;;;;;;;;17.22;75.69;100678.47;5039645;28;19920;-77
2022/06/30 04:18:20;;;;;;;;;;;;;;;17.27;75.50;100679.09;5028011;28;20072;-77
2022/06/30 04:20:45;;;;;;;;;;;;;;;17.30;75.58;100681.56;5027547;28;20593;-77
2022/06/30 04:23:11;;;;;;;;;;;;;;;17.32;75.95;100686.75;5033318;28;20590;-76
2022/06/30 04:25:37;;;;;;;;;;;;;;;17.37;75.38;100688.22;5049491;28;19971;-77
2022/06/30 04:28:02;;;;;;;;;;;;;;;17.36;75.08;100683.03;5046510;28;19944;-77
2022/06/30 04:33:12;;;;;;;;;;;;;;;17.42;75.49;100682.72;5041671;28;19936;-77
2022/06/30 04:35:37;;;;;;;;;;;;;;;17.45;75.07;100679.94;5029532;28;19929;-77
2022/06/30 04:38:03;;;;;;;;;;;;;;;17.43;75.50;100677.41;5046611;28;19925;-77
2022/06/30 04:43:13;;;;;;;;;;;;;;;17.42;75.49;100672.22;5043308;28;20051;-77
2022/06/30 04:45:38;;;;;;;;;;;;;;;17.45;75.49;100672.06;5048482;28;20008;-77
2022/06/30 04:48:04;;;;;;;;;;;;;;;17.45;76.25;100667.66;5046988;28;19921;-77
2022/06/30 04:50:29;;;;;;;;;;;;;;;17.46;76.00;100669.38;5044289;28;19959;-76
2022/06/30 04:52:55;;;;;;;;;;;;;;;17.39;76.69;100659.25;5045993;28;19935;-76
2022/06/30 04:55:20;;;;;;;;;;;;;;;17.42;76.66;100673.06;5041300;28;20051;-76
2022/06/30 04:57:45;;;;;;;;;;;;;;;17.42;76.89;100666.97;5046890;28;19924;-76
2022/06/30 05:00:11;;;;;;;;;;;;;;;17.44;76.63;100663.31;5045310;28;19921;-76
2022/06/30 05:02:36;;;;;;;;;;;;;;;17.41;76.47;100654.78;5048089;28;19932;-78
2022/06/30 05:05:02;;;;;;;;;;;;;;;17.47;76.12;100654.47;5044171;28;19924;-79
2022/06/30 05:07:27;;;;;;;;;;;;;;;17.51;76.40;100651.59;5048367;28;19933;-78
2022/06/30 05:09:52;;;;;;;;;;;;;;;17.51;76.29;100656.00;5023411;28;19947;-78
2022/06/30 05:12:18;;;;;;;;;;;;;;;17.57;76.03;100659.16;5049131;28;20379;-77
2022/06/30 05:14:43;;;;;;;;;;;;;;;17.55;76.06;100663.66;5033896;28;19924;-77
2022/06/30 05:17:08;;;;;;;;;;;;;;;17.58;75.91;100660.00;5033034;28;19991;-77
2022/06/30 05:19:34;;;;;;;;;;;;;;;17.59;75.67;100659.94;5047908;28;20340;-77
2022/06/30 05:21:59;;;;;;;;;;;;;;;17.63;75.90;100659.78;5032758;28;19923;-77
2022/06/30 05:27:09;;;;;;;;;;;;;;;17.70;76.28;100662.03;5044997;28;20031;-77
2022/06/30 05:29:34;;;;;;;;;;;;;;;17.74;76.02;100660.94;5048795;28;20415;-77
2022/06/30 05:32:00;;;;;;;;;;;;;;;17.74;75.84;100660.94;5049611;28;19929;-77
2022/06/30 05:34:25;;;;;;;;;;;;;;;17.75;76.16;100665.25;5048499;28;19928;-77
2022/06/30 05:36:50;;;;;;;;;;;;;;;17.78;75.98;100654.59;5048656;28;19979;-79
2022/06/30 05:39:17;;;;;;;;;;;;;;;17.82;75.43;100652.66;5043896;28;19924;-79
2022/06/30 05:41:42;;;;;;;;;;;;;;;17.84;75.59;100659.53;5042530;28;19936;-78
2022/06/30 05:44:08;;;;;;;;;;;;;;;17.86;75.46;100648.94;5048178;28;19936;-77
2022/06/30 05:46:33;;;;;;;;;;;;;;;17.86;74.84;100641.91;5040977;28;19925;-78
2022/06/30 05:48:59;;;;;;;;;;;;;;;17.88;74.82;100640.06;5056417;28;19992;-80
2022/06/30 05:51:24;;;;;;;;;;;;;;;17.85;76.15;100642.00;5046474;28;19932;-79
2022/06/30 05:53:49;;;;;;;;;;;;;;;17.85;76.29;100631.47;5054162;28;20419;-79
2022/06/30 05:56:14;;;;;;;;;;;;;;;17.88;76.44;100631.31;5039676;28;20454;-79
2022/06/30 05:58:40;;;;;;;;;;;;;;;17.88;76.22;100640.06;5029379;28;20003;-79
2022/06/30 06:01:05;;;;;;;;;;;;;;;17.88;75.87;100628.69;5045972;28;19921;-80
2022/06/30 06:03:30;;;;;;;;;;;;;;;18.00;74.76;100635.91;5038934;28;19916;-79
2022/06/30 06:05:56;;;;;;;;;;;;;;;17.96;75.31;100634.38;5045713;28;19921;-79
2022/06/30 06:08:21;;;;;;;;;;;;;;;17.93;75.58;100635.41;5043331;28;20620;-79
2022/06/30 06:10:47;;;;;;;;;;;;;;;17.97;75.09;100646.59;5038845;28;19925;-79
2022/06/30 06:13:13;;;;;;;;;;;;;;;17.96;75.44;100648.38;5039302;28;19932;-79
2022/06/30 06:15:39;;;;;;;;;;;;;;;18.01;75.04;100646.34;5042514;28;19932;-79
2022/06/30 06:18:04;;;;;;;;;;;;;;;18.02;75.05;100650.69;5047507;28;19924;-79
2022/06/30 06:20:29;;;;;;;;;;;;;;;18.05;74.54;100650.50;5058293;28;19924;-80
2022/06/30 06:22:55;;;;;;;;;;;;;;;18.04;74.82;100653.22;5046391;28;19927;-79
2022/06/30 06:25:20;;;;;;;;;;;;;;;18.05;75.43;100652.28;5028670;28;19924;-79
2022/06/30 06:30:30;;;;;;;;;;;;;;;18.06;75.06;100654.84;5040328;28;19935;-78
2022/06/30 06:32:55;;;;;;;;;;;;;;;18.08;75.60;100657.38;5043645;28;19928;-78
2022/06/30 06:35:20;;;;;;;;;;;;;;;18.08;75.21;100652.97;5040586;28;19929;-78
2022/06/30 06:37:45;;;;;;;;;;;;;;;18.09;74.89;100652.03;5043093;28;19924;-77
2022/06/30 06:40:11;;;;;;;;;;;;;;;18.10;75.20;100653.72;5024844;28;20028;-77
2022/06/30 06:42:36;;;;;;;;;;;;;;;18.11;75.34;100657.22;5029402;28;19921;-77
2022/06/30 06:45:02;;;;;;;;;;;;;;;18.16;75.04;100649.91;5030330;28;19978;-77
2022/06/30 06:47:27;;;;;;;;;;;;;;;18.14;75.14;100652.66;5030905;28;20010;-77
2022/06/30 06:49:52;;;;;;;;;;;;;;;18.16;75.69;100652.56;5029057;28;19986;-77
2022/06/30 06:52:18;;;;;;;;;;;;;;;18.16;75.30;100649.91;5042746;28;19925;-77
2022/06/30 06:54:43;;;;;;;;;;;;;;;18.18;75.27;100647.22;5025273;28;20469;-77
2022/06/30 06:57:08;;;;;;;;;;;;;;;18.14;75.75;100649.16;5023415;28;19921;-77
2022/06/30 06:59:34;;;;;;;;;;;;;;;18.20;75.75;100646.19;5030900;28;19932;-77
2022/06/30 07:02:00;;;;;;;;;;;;;;;18.23;75.77;100635.53;5026704;28;19928;-78
2022/06/30 07:04:25;;;;;;;;;;;;;;;18.24;75.78;100637.22;5018711;28;19924;-78
2022/06/30 07:06:51;;;;;;;;;;;;;;;18.27;75.51;100644.09;5039389;28;19956;-77
2022/06/30 07:09:16;;;;;;;;;;;;;;;18.28;76.42;100651.88;5038464;28;19921;-77
2022/06/30 07:11:41;;;;;;;;;;;;;;;18.26;76.19;100647.66;5040079;28;19929;-78
2022/06/30 07:14:08;;;;;;;;;;;;;;;18.29;76.49;100650.09;5040116;28;19925;-79
2022/06/30 07:16:33;;;;;;;;;;;;;;;18.26;76.05;100663.44;5042945;28;19976;-79
2022/06/30 07:18:59;;;;;;;;;;;;;;;18.24;76.29;100652.16;5043016;28;19983;-76
2022/06/30 07:21:24;;;;;;;;;;;;;;;18.20;76.58;100653.25;5025450;28;20422;-77
2022/06/30 07:23:49;;;;;;;;;;;;;;;18.27;77.06;100660.72;5041983;28;19940;-79
2022/06/30 07:26:15;;;;;;;;;;;;;;;18.27;76.54;100658.09;5035995;28;19932;-77
2022/06/30 07:28:42;;;;;;;;;;;;;;;18.29;76.39;100658.84;5038560;28;20292;-77
2022/06/30 07:31:08;;;;;;;;;;;;;;;18.28;76.75;100665.03;5027666;28;19950;-77
2022/06/30 07:33:34;;;;;;;;;;;;;;;18.30;76.73;100659.72;5043591;28;19920;-77
2022/06/30 07:35:59;;;;;;;;;;;;;;;18.36;76.88;100662.81;5039811;28;19924;-77
2022/06/30 07:38:25;;;;;;;;;;;;;;;18.36;76.59;100660.19;5019020;28;20351;-76
2022/06/30 07:40:50;;;;;;;;;;;;;;;18.41;76.29;100659.97;5041915;28;19935;-76
2022/06/30 07:43:15;;;;;;;;;;;;;;;18.45;76.43;100658.88;5050353;28;20300;-77
2022/06/30 07:45:40;;;;;;;;;;;;;;;18.44;76.07;100667.69;5050640;28;19920;-77
2022/06/30 07:48:06;;;;;;;;;;;;;;;18.50;75.44;100662.97;5039879;28;19976;-77
2022/06/30 07:50:31;;;;;;;;;;;;;;;18.40;75.72;100667.00;5032787;28;19925;-77
2022/06/30 07:52:56;;;;;;;;;;;;;;;18.41;75.13;100666.06;5017760;28;19929;-79
2022/06/30 07:55:22;;;;;;;;;;;;;;;18.31;75.04;100670.13;5031527;28;20012;-79
2022/06/30 07:57:48;;;;;;;;;;;;;;;18.33;76.09;100668.28;5039231;28;19921;-79
2022/06/30 08:00:14;;;;;;;;;;;;;;;18.27;74.60;100665.13;5036161;28;19924;-79
2022/06/30 08:02:40;;;;;;;;;;;;;;;18.23;73.51;100664.44;5023866;28;20559;-79
2022/06/30 08:05:06;;;;;;;;;;;;;;;18.24;76.07;100660.91;5041680;28;19978;-79
2022/06/30 08:07:32;;;;;;;;;;;;;;;18.23;76.64;100672.34;5026683;28;19925;-79
2022/06/30 08:09:57;;;;;;;;;;;;;;;18.22;74.08;100668.00;5043416;28;19979;-79
2022/06/30 08:12:22;;;;;;;;;;;;;;;18.22;72.37;100661.88;5036389;28;19925;-78
2022/06/30 08:14:48;;;;;;;;;;;;;;;18.24;74.01;100673.19;5035795;28;19955;-78
2022/06/30 08:17:13;;;;;;;;;;;;;;;18.44;74.25;100663.28;5036386;28;19933;-78
2022/06/30 08:19:39;;;;;;;;;;;;;;;18.53;74.41;100668.06;5036225;28;19925;-77
2022/06/30 08:22:04;;;;;;;;;;;;;;;18.36;75.07;100665.44;5039147;28;20004;-77
2022/06/30 08:24:30;;;;;;;;;;;;;;;18.29;76.02;100660.63;5042335;28;20011;-76
2022/06/30 08:26:56;;;;;;;;;;;;;;;18.34;75.94;100662.06;5044375;28;19931;-76
2022/06/30 08:29:22;;;;;;;;;;;;;;;18.37;75.92;100658.41;5021936;28;19940;-76
2022/06/30 08:31:47;;;;;;;;;;;;;;;18.38;75.98;100657.50;5042088;28;19929;-76
2022/06/30 08:34:13;;;;;;;;;;;;;;;18.33;76.30;100655.13;5045512;28;19968;-76
2022/06/30 08:36:38;;;;;;;;;;;;;;;18.32;76.49;100658.69;5046335;28;19921;-76
2022/06/30 08:39:03;;;;;;;;;;;;;;;18.28;76.14;100656.28;5040381;28;19921;-76
2022/06/30 08:44:17;;;;;;;;;;;;;;;18.43;74.28;100647.56;5045809;28;19975;-76
2022/06/30 08:46:42;;;;;;;;;;;;;;;18.79;72.65;100652.59;5038693;28;21792;-77
2022/06/30 08:49:08;;;;;;;;;;;;;;;18.60;72.86;100650.16;5037915;28;19928;-77
2022/06/30 08:51:34;;;;;;;;;;;;;;;18.39;73.76;100654.75;5044456;28;19929;-79
2022/06/30 08:54:00;;;;;;;;;;;;;;;18.37;75.72;100650.53;5043264;28;20016;-79
2022/06/30 08:56:30;;;;;;;;;;;;;;;18.37;75.17;100642.63;5025353;28;19947;-79
2022/06/30 08:58:55;;;;;;;;;;;;;;;18.50;74.86;100647.19;5037216;28;19955;-79
2022/06/30 09:01:21;;;;;;;;;;;;;;;18.49;74.60;100649.88;5037624;28;19925;-79
2022/06/30 09:03:46;;;;;;;;;;;;;;;18.77;72.33;100638.69;5043494;28;19924;-76
2022/06/30 09:06:13;;;;;;;;;;;;;;;18.69;73.67;100641.72;5043160;28;19927;-76
2022/06/30 09:08:38;;;;;;;;;;;;;;;18.68;72.94;100645.31;5039607;28;19925;-76
2022/06/30 09:11:03;;;;;;;;;;;;;;;18.85;72.15;100637.28;5036453;28;20531;-76
2022/06/30 09:13:40;;;;;;;;;;;;;;;18.62;70.42;100633.34;5023481;28;20013;-76
2022/06/30 09:16:05;;;;;;;;;;;;;;;18.62;72.06;100638.63;5039634;28;20445;-76
2022/06/30 09:18:31;;;;;;;;;;;;;;;18.57;72.21;100639.81;5039797;28;20016;-76
2022/06/30 09:20:57;;;;;;;;;;;;;;;18.70;70.71;100635.53;5050493;28;19920;-77
2022/06/30 09:23:30;;;;;;;;;;;;;;;19.01;68.83;100629.38;5051440;28;19931;-77
2022/06/30 09:25:59;;;;;;;;;;;;;;;18.63;70.81;100636.81;5048869;28;19916;-77
2022/06/30 09:28:43;;;;;;;;;;;;;;;18.69;70.54;100629.41;5028038;28;20002;-77
2022/06/30 09:31:09;;;;;;;;;;;;;;;18.81;69.11;100625.25;5024739;28;19952;-77
2022/06/30 09:33:36;;;;;;;;;;;;;;;19.72;62.20;100630.41;5025901;28;20459;-78
2022/06/30 09:36:17;;;;;;;;;;;;;;;19.41;63.93;100630.53;5042820;28;19968;-78
2022/06/30 09:38:57;;;;;;;;;;;;;;;18.99;67.19;100620.69;5030433;28;20332;-78
2022/06/30 09:41:26;;;;;;;;;;;;;;;18.80;69.77;100620.94;5047711;28;19928;-78
2022/06/30 09:43:51;;;;;;;;;;;;;;;18.82;67.61;100611.16;5038123;28;19921;-78
2022/06/30 09:46:17;;;;;;;;;;;;;;;19.13;67.58;100605.78;5029928;28;19943;-78
2022/06/30 09:48:42;;;;;;;;;;;;;;;18.96;68.77;100612.97;5027218;28;19925;-78
2022/06/30 09:51:07;;;;;;;;;;;;;;;19.01;68.53;100608.31;5041046;28;19929;-78
2022/06/30 09:53:33;;;;;;;;;;;;;;;19.18;67.25;100603.75;5041802;28;19935;-78
2022/06/30 09:56:12;;;;;;;;;;;;;;;19.53;63.53;100601.66;5046765;28;19928;-78
2022/06/30 09:58:40;;;;;;;;;;;;;;;19.53;62.85;100604.31;5022575;28;19927;-77
2022/06/30 10:01:06;;;;;;;;;;;;;;;19.44;63.16;100590.84;5039201;28;19917;-77
2022/06/30 10:03:31;;;;;;;;;;;;;;;19.69;62.55;100594.53;5049882;28;20104;-78
2022/06/30 10:06:08;;;;;;;;;;;;;;;20.16;60.54;100588.09;5040350;28;19971;-79
2022/06/30 10:08:34;;;;;;;;;;;;;;;20.06;62.33;100590.44;5039192;28;20384;-79
2022/06/30 10:11:00;;;;;;;;;;;;;;;19.97;61.91;100585.75;5044454;28;19948;-78
2022/06/30 10:13:26;;;;;;;;;;;;;;;20.24;60.43;100585.81;5045414;28;19929;-78
2022/06/30 10:15:54;;;;;;;;;;;;;;;20.16;60.04;100594.25;5037632;28;19964;-77
2022/06/30 10:18:24;;;;;;;;;;;;;;;20.33;58.60;100577.31;5043344;28;19925;-77
2022/06/30 10:20:50;;;;;;;;;;;;;;;19.51;64.05;100585.13;5025407;28;19956;-78
2022/06/30 10:23:19;;;;;;;;;;;;;;;19.17;65.54;100594.16;5027181;28;20018;-77
2022/06/30 10:25:45;;;;;;;;;;;;;;;19.14;64.51;100596.09;5040169;28;19999;-75
2022/06/30 10:28:11;;;;;;;;;;;;;;;19.63;59.79;100584.38;5035248;28;20335;-75
2022/06/30 10:30:56;;;;;;;;;;;;;;;19.39;62.46;100585.84;5039902;28;19995;-75
2022/06/30 10:33:29;;;;;;;;;;;;;;;20.21;56.09;100567.56;5001072;28;19972;-76
2022/06/30 10:35:55;;;;;;;;;;;;;;;19.84;56.25;100576.94;5053899;28;19971;-75
2022/06/30 10:38:20;;;;;;;;;;;;;;;19.71;57.93;100576.84;5026868;28;19963;-75
2022/06/30 10:40:54;;;;;;;;;;;;;;;19.54;59.84;100573.53;5037170;28;19920;-75
2022/06/30 10:43:20;;;;;;;;;;;;;;;19.41;59.64;100581.34;5035258;28;20644;-76
2022/06/30 10:45:55;;;;;;;;;;;;;;;19.47;59.52;100583.59;5041386;28;19929;-76
2022/06/30 10:48:22;;;;;;;;;;;;;;;19.32;60.83;100575.75;5027400;28;20301;-75
2022/06/30 10:50:47;;;;;;;;;;;;;;;19.53;57.96;100574.47;5038949;28;19924;-76
2022/06/30 10:53:17;;;;;;;;;;;;;;;19.48;58.71;100577.41;5043592;28;20414;-75
2022/06/30 10:55:43;;;;;;;;;;;;;;;19.28;60.99;100579.50;5038952;28;19924;-76
2022/06/30 10:58:09;;;;;;;;;;;;;;;19.50;59.31;100569.38;5034867;28;19931;-77
2022/06/30 11:00:53;;;;;;;;;;;;;;;19.09;65.23;100574.47;5040730;28;19920;-77
2022/06/30 11:03:40;;;;;;;;;;;;;;;19.04;64.84;100580.03;5044181;28;20578;-76
2022/06/30 11:06:06;;;;;;;;;;;;;;;19.25;62.26;100562.09;4968973;28;1917215;-76
2022/06/30 11:08:47;;;;;;;;;;;;;;;20.46;56.43;100561.56;5040370;28;20914;-76
2022/06/30 11:11:25;;;;;;;;;;;;;;;20.12;57.97;100558.44;5040753;28;19960;-76
2022/06/30 11:14:02;;;;;;;;;;;;;;;19.74;60.66;100567.88;5038454;28;20412;-76
2022/06/30 11:16:31;;;;;;;;;;;;;;;20.10;57.15;100552.44;5038859;28;19947;-75
2022/06/30 11:18:57;;;;;;;;;;;;;;;20.20;56.82;100555.34;5030805;28;20011;-75
2022/06/30 11:21:22;;;;;;;;;;;;;;;20.26;55.87;100553.13;5036633;28;19920;-75
2022/06/30 11:23:48;;;;;;;;;;;;;;;20.61;54.51;100550.84;5045474;28;20023;-78
2022/06/30 11:29:00;;;;;;;;;;;;;;;20.06;58.62;100540.34;5045128;28;19947;-79
2022/06/30 11:31:30;;;;;;;;;;;;;;;19.86;60.34;100547.81;5042950;28;19925;-79
2022/06/30 11:34:01;;;;;;;;;;;;;;;20.90;58.12;100548.94;5042379;28;19936;-78
2022/06/30 11:36:27;;;;;;;;;;;;;;;20.59;59.10;100543.97;5043950;28;19924;-79
2022/06/30 11:38:54;;;;;;;;;;;;;;;20.96;57.67;100542.38;5040516;28;20770;-79
2022/06/30 11:44:11;;;;;;;;;;;;;;;21.15;56.12;100548.97;5042172;28;20012;-78
2022/06/30 11:46:49;;;;;;;;;;;;;;;21.00;57.01;100550.03;5046307;28;20495;-78
2022/06/30 11:49:15;;;;;;;;;;;;;;;20.62;58.88;100551.69;5027442;28;19932;-78
2022/06/30 11:51:42;;;;;;;;;;;;;;;20.38;60.49;100546.22;5043390;28;19935;-78
2022/06/30 11:54:08;;;;;;;;;;;;;;;20.60;59.08;100545.66;5043485;28;20636;-78
2022/06/30 11:56:43;;;;;;;;;;;;;;;21.35;57.10;100535.25;5033595;28;19921;-78
2022/06/30 11:59:08;;;;;;;;;;;;;;;21.01;58.51;100530.56;5027695;28;19986;-75
2022/06/30 12:01:33;;;;;;;;;;;;;;;21.22;57.75;100537.03;5031158;28;20388;-76
2022/06/30 12:04:10;;;;;;;;;;;;;;;21.27;57.80;100520.88;5046647;28;19925;-76
2022/06/30 12:06:36;;;;;;;;;;;;;;;21.47;57.39;100516.84;5050326;28;19974;-75
2022/06/30 12:09:01;;;;;;;;;;;;;;;21.06;58.93;100530.25;5049327;28;19924;-75
2022/06/30 12:11:30;;;;;;;;;;;;;;;21.53;56.46;100511.97;5047450;28;20075;-75
2022/06/30 12:13:55;;;;;;;;;;;;;;;21.19;57.78;100525.81;5040696;28;19929;-77
2022/06/30 12:16:20;;;;;;;;;;;;;;;21.52;57.00;100523.47;5038028;28;20299;-77
2022/06/30 12:18:46;;;;;;;;;;;;;;;21.06;58.50;100517.06;5033639;28;19925;-77
2022/06/30 12:21:11;;;;;;;;;;;;;;;20.72;58.59;100499.97;5039438;28;19917;-77
2022/06/30 12:23:37;;;;;;;;;;;;;;;21.26;55.91;100512.09;5043469;28;19924;-75
2022/06/30 12:26:05;;;;;;;;;;;;;;;21.47;54.91;100507.13;5040288;28;19932;-75
2022/06/30 12:28:42;;;;;;;;;;;;;;;21.41;54.54;100500.47;5035435;28;19925;-75
2022/06/30 12:31:08;;;;;;;;;;;;;;;21.34;56.66;100500.97;5031062;28;19928;-76
2022/06/30 12:33:39;;;;;;;;;;;;;;;21.34;56.37;100493.91;5045658;28;20644;-77
2022/06/30 12:36:05;;;;;;;;;;;;;;;21.47;56.17;100487.75;5044596;28;19928;-77
2022/06/30 12:38:30;;;;;;;;;;;;;;;20.43;59.96;100504.56;5043881;28;19921;-77
2022/06/30 12:40:55;;;;;;;;;;;;;;;21.42;56.42;100494.19;5042846;28;19980;-78
2022/06/30 12:43:21;;;;;;;;;;;;;;;21.64;55.77;100479.50;5046939;28;19925;-78
2022/06/30 12:45:49;;;;;;;;;;;;;;;21.76;55.65;100470.69;5044441;28;19921;-77
2022/06/30 12:48:33;;;;;;;;;;;;;;;21.71;54.93;100473.69;5038380;28;19925;-78
2022/06/30 12:50:59;;;;;;;;;;;;;;;21.49;54.74;100464.69;5041933;28;19925;-78
2022/06/30 12:53:25;;;;;;;;;;;;;;;20.94;57.30;100470.34;5043916;28;19950;-78
2022/06/30 12:55:56;;;;;;;;;;;;;;;21.29;55.54;100463.47;5042317;28;19956;-77
2022/06/30 12:58:22;;;;;;;;;;;;;;;20.80;58.94;100474.75;5041635;28;19928;-77